createdAt,value
2024-03-10T00:03:42.571Z,100354.56
2024-03-10T00:08:44.655Z,100358.97
2024-03-10T00:13:46.133Z,100359.84
2024-03-10T00:18:47.615Z,100360.72
2024-03-10T00:23:49.777Z,100357.19
2024-03-10T00:28:51.295Z,100363.34
2024-03-10T00:33:53.091Z,100364.19
2024-03-10T00:38:54.885Z,100364.19
2024-03-10T00:43:56.378Z,100362.44
2024-03-10T00:48:57.906Z,100344.00
2024-03-10T00:53:59.494Z,100344.84
2024-03-10T00:59:01.047Z,100340.47
2024-03-10T01:04:02.519Z,100343.13
2024-03-10T01:09:05.224Z,100342.22
2024-03-10T01:14:06.723Z,100338.69
2024-03-10T01:19:12.488Z,100326.41
2024-03-10T01:24:14.512Z,100319.34
2024-03-10T01:29:17.610Z,100322.88
2024-03-10T01:34:20.691Z,100313.19
2024-03-10T01:39:23.848Z,100313.19
2024-03-10T01:44:25.427Z,100315.84
2024-03-10T01:49:27.866Z,100308.78
2024-03-10T01:54:34.428Z,100322.84
2024-03-10T01:59:36.150Z,100311.41
2024-03-10T02:04:39.037Z,100310.53
2024-03-10T02:09:40.748Z,100309.63
2024-03-10T02:14:42.533Z,100303.44
2024-03-10T02:19:44.032Z,100302.56
2024-03-10T02:24:49.036Z,100309.59
2024-03-10T02:30:09.171Z,100306.06
2024-03-10T02:35:29.069Z,100302.56
2024-03-10T02:40:49.229Z,100308.66
2024-03-10T02:46:09.061Z,100294.63
2024-03-10T02:51:10.497Z,100295.50
2024-03-10T02:56:12.017Z,100296.34
2024-03-10T03:01:17.389Z,100305.09
2024-03-10T03:06:19.177Z,100301.56
2024-03-10T03:11:21.158Z,100301.56
2024-03-10T03:16:22.770Z,100299.75
2024-03-10T03:21:24.867Z,100303.28
2024-03-10T03:26:26.621Z,100305.88
2024-03-10T03:31:28.123Z,100296.22
2024-03-10T03:36:29.600Z,100294.44
2024-03-10T03:41:31.068Z,100299.69
2024-03-10T03:46:32.571Z,100287.38
2024-03-10T03:51:34.047Z,100271.56
2024-03-10T03:56:35.556Z,100280.31
2024-03-10T04:01:37.819Z,100277.66
2024-03-10T04:06:40.088Z,100277.63
2024-03-10T04:11:41.627Z,100263.56
2024-03-10T04:16:46.177Z,100266.19
2024-03-10T04:21:48.972Z,100266.19
2024-03-10T04:26:50.994Z,100268.78
2024-03-10T04:31:54.123Z,100258.22
2024-03-10T04:36:55.586Z,100254.69
2024-03-10T04:41:57.063Z,100252.03
2024-03-10T04:46:58.857Z,100264.28
2024-03-10T04:52:01.611Z,100274.78
2024-03-10T04:57:03.065Z,100276.50
2024-03-10T05:02:04.888Z,100285.22
2024-03-10T05:07:06.394Z,100293.09
2024-03-10T05:12:10.124Z,100302.69
2024-03-10T05:17:12.803Z,100292.97
2024-03-10T05:22:14.497Z,100304.34
2024-03-10T05:27:18.527Z,100300.81
2024-03-10T05:32:20.368Z,100303.41
2024-03-10T05:37:23.490Z,100279.69
2024-03-10T05:42:25.061Z,100275.28
2024-03-10T05:47:28.360Z,100264.78
2024-03-10T05:52:29.860Z,100262.13
2024-03-10T05:57:31.798Z,100255.09
2024-03-10T06:02:33.702Z,100256.88
2024-03-10T06:07:35.161Z,100270.03
2024-03-10T06:12:38.637Z,100277.94
2024-03-10T06:17:42.625Z,100284.13
2024-03-10T06:23:02.978Z,100278.91
2024-03-10T06:28:04.798Z,100290.41
2024-03-10T06:33:06.305Z,100276.44
2024-03-10T06:38:08.504Z,100274.75
2024-03-10T06:43:10.055Z,100286.22
2024-03-10T06:48:14.437Z,100290.66
2024-03-10T06:53:15.929Z,100292.47
2024-03-10T06:58:18.377Z,100297.81
2024-03-10T07:03:20.003Z,100297.84
2024-03-10T07:08:22.246Z,100303.19
2024-03-10T07:13:24.171Z,100290.09
2024-03-10T07:18:25.738Z,100297.19
2024-03-10T07:23:27.380Z,100299.88
2024-03-10T07:28:28.891Z,100305.19
2024-03-10T07:33:30.506Z,100297.34
2024-03-10T07:38:32.062Z,100286.00
2024-03-10T07:43:33.582Z,100277.31
2024-03-10T07:48:37.029Z,100270.34
2024-03-10T07:53:38.502Z,100273.97
2024-03-10T07:58:40.201Z,100252.06
2024-03-10T08:03:42.167Z,100275.00
2024-03-10T08:08:43.865Z,100274.22
2024-03-10T08:13:46.025Z,100284.88
2024-03-10T08:18:49.745Z,100289.34
2024-03-10T08:23:52.594Z,100293.84
2024-03-10T08:28:54.086Z,100293.91
2024-03-10T08:33:55.874Z,100293.19
2024-03-10T08:38:57.510Z,100282.72
2024-03-10T08:44:01.244Z,100275.81
2024-03-10T08:49:03.278Z,100270.69
2024-03-10T08:54:09.077Z,100269.88
2024-03-10T08:59:13.176Z,100262.97
2024-03-10T09:04:15.164Z,100251.63
2024-03-10T09:09:19.664Z,100255.19
2024-03-10T09:14:21.434Z,100262.25
2024-03-10T09:19:22.953Z,100248.13
2024-03-10T09:24:24.460Z,100245.41
2024-03-10T09:29:28.832Z,100245.38
2024-03-10T09:34:31.549Z,100233.81
2024-03-10T09:39:34.062Z,100224.03
2024-03-10T09:44:37.583Z,100220.28
2024-03-10T09:49:40.055Z,100223.41
2024-03-10T09:54:42.105Z,100217.72
2024-03-10T09:59:45.399Z,100214.09
2024-03-10T10:04:58.352Z,100216.53
2024-03-10T10:10:05.025Z,100214.63
2024-03-10T10:15:08.759Z,100215.41
2024-03-10T10:20:13.241Z,100218.00
2024-03-10T10:25:16.021Z,100224.16
2024-03-10T10:30:20.382Z,100228.16
2024-03-10T10:35:23.207Z,100229.31
2024-03-10T10:40:24.723Z,100221.38
2024-03-10T10:45:28.392Z,100208.28
2024-03-10T10:50:35.235Z,100204.91
2024-03-10T10:55:41.216Z,100210.16
2024-03-10T11:00:51.021Z,100202.97
2024-03-10T11:06:09.446Z,100176.72
2024-03-10T11:11:15.873Z,100180.78
2024-03-10T11:16:25.848Z,100163.78
2024-03-10T11:21:27.521Z,100139.81
2024-03-10T11:26:29.626Z,100132.84
2024-03-10T11:31:34.207Z,100127.72
2024-03-10T11:36:38.166Z,100129.75
2024-03-10T11:41:39.857Z,100131.72
2024-03-10T11:46:41.349Z,100123.84
2024-03-10T11:51:45.146Z,100123.19
2024-03-10T11:56:51.835Z,100125.06
2024-03-10T12:01:54.309Z,100115.38
2024-03-10T12:06:55.806Z,100111.84
2024-03-10T12:11:58.318Z,100090.63
2024-03-10T12:17:00.140Z,100082.66
2024-03-10T12:22:02.495Z,100074.72
2024-03-10T12:27:07.668Z,100052.59
2024-03-10T12:32:12.583Z,100055.22
2024-03-10T12:37:14.150Z,100056.06
2024-03-10T12:42:16.165Z,100071.06
2024-03-10T12:47:18.043Z,100071.78
2024-03-10T12:52:19.538Z,100064.28
2024-03-10T12:57:22.618Z,100072.00
2024-03-10T13:02:24.464Z,100073.56
2024-03-10T13:07:26.508Z,100069.81
2024-03-10T13:12:28.103Z,100076.63
2024-03-10T13:17:30.422Z,100070.91
2024-03-10T13:22:32.014Z,100067.97
2024-03-10T13:27:36.397Z,100073.19
2024-03-10T13:32:38.135Z,100058.91
2024-03-10T13:37:39.760Z,100055.31
2024-03-10T13:42:46.097Z,100053.41
2024-03-10T13:47:49.078Z,100055.88
2024-03-10T13:52:50.793Z,100068.94
2024-03-10T13:57:55.084Z,100056.13
2024-03-10T14:02:57.623Z,100056.47
2024-03-10T14:08:00.619Z,100050.19
2024-03-10T14:13:04.371Z,100041.22
2024-03-10T14:18:08.310Z,100044.50
2024-03-10T14:23:09.996Z,100040.47
2024-03-10T14:28:11.592Z,100038.34
2024-03-10T14:33:13.570Z,100023.72
2024-03-10T14:38:15.168Z,100027.56
2024-03-10T14:43:18.635Z,100033.16
2024-03-10T14:48:20.149Z,100028.16
2024-03-10T14:53:22.762Z,100028.41
2024-03-10T14:58:24.964Z,100028.69
2024-03-10T15:03:27.672Z,100019.19
2024-03-10T15:08:29.298Z,100010.66
2024-03-10T15:13:30.733Z,100018.91
2024-03-10T15:18:35.212Z,100016.50
2024-03-10T15:23:38.275Z,100020.22
2024-03-10T15:28:39.734Z,100013.38
2024-03-10T15:33:41.293Z,100019.81
2024-03-10T15:38:42.952Z,100018.22
2024-03-10T15:43:44.415Z,100011.34
2024-03-10T15:48:46.750Z,100001.81
2024-03-10T15:53:49.383Z,100013.56
2024-03-10T15:58:54.699Z,100009.34
2024-03-10T16:04:02.152Z,100010.47
2024-03-10T16:09:05.816Z,100010.63
2024-03-10T16:14:12.322Z,100004.56
2024-03-10T16:19:15.087Z,100015.41
2024-03-10T16:24:16.664Z,100024.44
2024-03-10T16:29:19.318Z,100021.94
2024-03-10T16:34:20.844Z,100030.06
2024-03-10T16:39:24.224Z,100042.59
2024-03-10T16:44:28.019Z,100042.75
2024-03-10T16:49:30.663Z,100035.75
2024-03-10T16:54:35.364Z,100043.88
2024-03-10T16:59:36.995Z,100047.50
2024-03-10T17:04:38.767Z,100051.19
2024-03-10T17:09:40.523Z,100044.22
2024-03-10T17:14:42.086Z,100057.56
2024-03-10T17:19:43.546Z,100067.41
2024-03-10T17:24:46.376Z,100058.66
2024-03-10T17:29:47.887Z,100060.50
2024-03-10T17:34:50.013Z,100065.00
2024-03-10T17:39:55.409Z,100068.59
2024-03-10T17:45:16.926Z,100071.31
2024-03-10T17:50:19.796Z,100059.84
2024-03-10T17:55:21.440Z,100053.72
2024-03-10T18:00:23.750Z,100050.25
2024-03-10T18:05:28.468Z,100062.72
2024-03-10T18:10:29.973Z,100056.63
2024-03-10T18:15:31.384Z,100057.53
2024-03-10T18:20:32.941Z,100062.00
2024-03-10T18:25:35.088Z,100063.84
2024-03-10T18:30:41.102Z,100061.25
2024-03-10T18:35:42.727Z,100077.22
2024-03-10T18:40:51.517Z,100066.66
2024-03-10T18:45:52.984Z,100061.34
2024-03-10T18:51:02.145Z,100058.72
2024-03-10T18:56:09.498Z,100066.75
2024-03-10T19:01:12.315Z,100063.25
2024-03-10T19:06:16.990Z,100069.50
2024-03-10T19:11:19.104Z,100081.94
2024-03-10T19:16:22.834Z,100076.66
2024-03-10T19:21:24.391Z,100069.63
2024-03-10T19:26:26.017Z,100067.00
2024-03-10T19:31:27.631Z,100077.66
2024-03-10T19:36:32.173Z,100076.81
2024-03-10T19:41:33.817Z,100069.78
2024-03-10T19:46:35.357Z,100070.69
2024-03-10T19:51:37.689Z,100066.28
2024-03-10T19:56:39.296Z,100077.81
2024-03-10T20:01:40.804Z,100081.41
2024-03-10T20:06:42.248Z,100077.03
2024-03-10T20:11:44.571Z,100077.97
2024-03-10T20:16:46.542Z,100082.41
2024-03-10T20:21:48.403Z,100074.47
2024-03-10T20:26:49.853Z,100080.75
2024-03-10T20:31:51.534Z,100093.22
2024-03-10T20:36:53.048Z,100087.03
2024-03-10T20:41:54.560Z,100080.91
2024-03-10T20:46:56.104Z,100067.69
2024-03-10T20:51:57.806Z,100073.91
2024-03-10T20:56:59.261Z,100075.69
2024-03-10T21:02:01.635Z,100070.44
2024-03-10T21:07:05.700Z,100070.50
2024-03-10T21:12:08.546Z,100078.47
2024-03-10T21:17:10.610Z,100069.66
2024-03-10T21:22:13.898Z,100069.69
2024-03-10T21:27:15.690Z,100077.69
2024-03-10T21:32:17.377Z,100067.09
2024-03-10T21:37:18.896Z,100060.06
2024-03-10T21:42:20.863Z,100056.56
2024-03-10T21:47:24.948Z,100059.31
2024-03-10T21:52:26.896Z,100065.50
2024-03-10T21:57:28.393Z,100063.75
2024-03-10T22:02:29.880Z,100061.16
2024-03-10T22:07:31.364Z,100061.19
2024-03-10T22:12:33.001Z,100060.31
2024-03-10T22:17:34.788Z,100058.59
2024-03-10T22:22:36.385Z,100060.41
2024-03-10T22:27:39.541Z,100052.44
2024-03-10T22:32:41.210Z,100064.88
2024-03-10T22:37:45.103Z,100063.16
2024-03-10T22:42:49.354Z,100068.47
2024-03-10T22:47:54.110Z,100065.81
2024-03-10T22:52:56.999Z,100060.56
2024-03-10T22:58:02.252Z,100066.72
2024-03-10T23:03:07.490Z,100057.91
2024-03-10T23:08:14.093Z,100050.00
2024-03-10T23:13:17.085Z,100057.97
2024-03-10T23:18:25.034Z,100054.47
2024-03-10T23:23:27.307Z,100043.88
2024-03-10T23:28:28.740Z,100047.44
2024-03-10T23:33:30.840Z,100054.50
2024-03-10T23:38:33.086Z,100047.44
2024-03-10T23:43:34.565Z,100041.28
2024-03-10T23:48:36.748Z,100043.97
2024-03-10T23:53:41.573Z,100040.47
2024-03-10T23:58:43.214Z,100041.41
